Wauneta, NE

5:39 PM MDT on July 31, 2014 (GMT -0600)
Imperial Municipal (KIML) Elev 3274 ft | 40.51 °N, 101.62 °W | Change Station

Current weather conditions updated 46 minutes ago

Clear
Clear
85 °F
Feels Like 85 °F
N
7
Wind Variable Wind from WNW

Tomorrow is forecast to be Warmer than today.

Today
High -- | Low -- °F
--% Chance of Precip.
Yesterday
High -- | Low -- °F
Precip. -- in
5:41 AM 8:01 PM
Waxing Crescent, 21% visible
Pressure 30.03 in
Visibility 10.0 miles
Clouds Clear
Dew Point 50 °F
Humidity 30%
Rainfall 0.00 in
Snow Depth Not available.
UV 4 out of 12
Pollen 7.50 out of 12
Air Quality Not available.
Flu Activity Not available.
METAR KIML 312253Z AUTO 29006KT 10SM CLR 29/10 A3011 RMK AO2 SLP167 T02940100

More Conditions Fewer Conditions

Pressure 30.03 in
Visibility 10.0 miles
Clouds Clear
Dew Point 50 °F
Humidity 30%
Rainfall 0.00 in
Snow Depth Not available.
UV 4 out of 12
Pollen 7.50 out of 12
Air Quality Not available.
Flu Activity Not available.
METAR KIML 312253Z AUTO 29006KT 10SM CLR 29/10 A3011 RMK AO2 SLP167 T02940100

More Conditions Fewer Conditions

10-Day Weather Forecast

Almanac

Astronomy

Jul. 31, 2014 Rise Set
Actual Time 5:41 AM MDT 8:01 PM MDT
Civil Twilight 5:11 AM MDT 8:31 PM MDT
Nautical Twilight 4:33 AM MDT 9:09 PM MDT
Astronomical Twilight 3:51 AM MDT 9:50 PM MDT
Moon 10:12 AM MDT 10:13 PM MDT
Length of Visible Light 15h 20m
Length of Day
14h 19m
Tomorrow will be 2m 0s shorter.
Waxing Crescent, 21% of the Moon is Illuminated
Today
Waxing Crescent
Aug 3
First Quarter
Aug 10
Full
Aug 17
Last Quarter
Aug 25
New

Today's Extremes

State Highs State Lows

Community

WunderPhotos

Upload Photos

1,739,462 photos uploaded!

Nearby

Snow Depth

Station Depth Elevation
No new snow has been reported.

Earthquake Activity

City Distance Mag. Time & Date
No recent earthquake activity has been reported nearby.
Minimum magnitude displayed is 2.5.

Coastal Water Temperatures

Place Temperature
No Stations Reporting

Nearby Weather Stations

Station Location Temp. Heat Index Dew Point Humidity Wind Precip. Elev Updated Type
Palisade, Palisade, NE 88.2 °F 86 °F 55 °F 32% NW  at  3.5 mph 0.00 in / hr 2768 ft 6:39 PM CDT Rapid Fire
MesoWest JOHNSON FARM , Champion, NE 85 °F 84 °F 56 °F 37% North  at  3 mph 0.00 in / hr 3340 ft 3:00 PM MDT MADIS
5 North, 1.5 West, Trenton, NE 88.0 °F 85 °F 43 °F 21% WNW  at  8.0 mph 0.00 in / hr 2969 ft 6:38 PM CDT Normal

Show More Stations Show Fewer Stations